Terminal Aerodrome Forecast
Issued by NWS

Home | Current Version | Previous Version | Text Only | Print | Product List | Glossary On
Versions: 1 2 3 4 5 6 7 8 9 10 11 12 13
219
FTUS42 KMLB 132324
TAFISM
TAF
KISM 132324Z 1400/1424 35007KT P6SM SKC
     FM141400 05008KT P6SM SCT035
     FM141700 07011KT P6SM BKN035
      AMD NOT SKED 1403/1412=

USA.gov is the U.S. government's official web portal to all federal, state and local government web resources and services.